sensor_id;sensor_type;location;lat;lon;timestamp;temperature;humidity
80216;DHT22;69532;37.974;23.708;2024-03-02T00:00:22;11.20;71.20
80216;DHT22;69532;37.974;23.708;2024-03-02T00:02:50;11.20;71.30
80216;DHT22;69532;37.974;23.708;2024-03-02T00:05:21;11.30;71.10
80216;DHT22;69532;37.974;23.708;2024-03-02T00:08:13;11.30;71.00
80216;DHT22;69532;37.974;23.708;2024-03-02T00:10:43;11.30;70.90
80216;DHT22;69532;37.974;23.708;2024-03-02T00:13:09;11.30;70.50
80216;DHT22;69532;37.974;23.708;2024-03-02T00:18:05;11.30;70.70
80216;DHT22;69532;37.974;23.708;2024-03-02T00:20:31;11.40;70.60
80216;DHT22;69532;37.974;23.708;2024-03-02T00:23:05;11.40;70.20
80216;DHT22;69532;37.974;23.708;2024-03-02T00:25:47;11.30;70.30
80216;DHT22;69532;37.974;23.708;2024-03-02T00:28:33;11.20;70.50
80216;DHT22;69532;37.974;23.708;2024-03-02T00:33:44;11.10;71.10
80216;DHT22;69532;37.974;23.708;2024-03-02T00:36:16;11.00;71.30
80216;DHT22;69532;37.974;23.708;2024-03-02T00:38:52;11.00;71.40
80216;DHT22;69532;37.974;23.708;2024-03-02T00:41:27;11.10;71.40
80216;DHT22;69532;37.974;23.708;2024-03-02T00:46:36;11.30;70.70
80216;DHT22;69532;37.974;23.708;2024-03-02T00:49:21;11.30;70.30
80216;DHT22;69532;37.974;23.708;2024-03-02T00:51:50;11.30;70.40
80216;DHT22;69532;37.974;23.708;2024-03-02T00:54:28;11.30;70.50
80216;DHT22;69532;37.974;23.708;2024-03-02T00:56:55;11.30;70.50
80216;DHT22;69532;37.974;23.708;2024-03-02T00:59:23;11.30;70.20
80216;DHT22;69532;37.974;23.708;2024-03-02T01:01:49;11.20;70.50
80216;DHT22;69532;37.974;23.708;2024-03-02T01:04:15;11.20;70.60
80216;DHT22;69532;37.974;23.708;2024-03-02T01:06:45;11.20;70.70
80216;DHT22;69532;37.974;23.708;2024-03-02T01:09:11;11.10;70.90
80216;DHT22;69532;37.974;23.708;2024-03-02T01:11:40;11.10;71.10
80216;DHT22;69532;37.974;23.708;2024-03-02T01:14:07;11.10;71.30
80216;DHT22;69532;37.974;23.708;2024-03-02T01:16:33;11.10;71.20
80216;DHT22;69532;37.974;23.708;2024-03-02T01:18:59;11.10;71.30
80216;DHT22;69532;37.974;23.708;2024-03-02T01:21:25;11.10;71.20
80216;DHT22;69532;37.974;23.708;2024-03-02T01:23:51;11.10;71.30
80216;DHT22;69532;37.974;23.708;2024-03-02T01:26:17;11.20;71.30
80216;DHT22;69532;37.974;23.708;2024-03-02T01:28:43;11.10;71.30
80216;DHT22;69532;37.974;23.708;2024-03-02T01:31:10;11.10;71.40
80216;DHT22;69532;37.974;23.708;2024-03-02T01:33:36;11.10;71.40
80216;DHT22;69532;37.974;23.708;2024-03-02T01:36:02;11.20;71.20
80216;DHT22;69532;37.974;23.708;2024-03-02T01:38:28;11.10;71.40
80216;DHT22;69532;37.974;23.708;2024-03-02T01:40:54;11.10;71.40
80216;DHT22;69532;37.974;23.708;2024-03-02T01:43:22;11.10;71.70
80216;DHT22;69532;37.974;23.708;2024-03-02T01:45:48;11.10;71.70
80216;DHT22;69532;37.974;23.708;2024-03-02T01:48:14;11.10;71.60
80216;DHT22;69532;37.974;23.708;2024-03-02T01:50:40;11.10;71.70
80216;DHT22;69532;37.974;23.708;2024-03-02T01:53:08;11.00;71.90
80216;DHT22;69532;37.974;23.708;2024-03-02T01:55:34;11.10;71.80
80216;DHT22;69532;37.974;23.708;2024-03-02T01:58:01;11.00;71.90
80216;DHT22;69532;37.974;23.708;2024-03-02T02:00:27;11.00;72.00
80216;DHT22;69532;37.974;23.708;2024-03-02T02:02:54;11.00;72.30
80216;DHT22;69532;37.974;23.708;2024-03-02T02:05:20;11.00;72.00
80216;DHT22;69532;37.974;23.708;2024-03-02T02:07:47;11.00;72.20
80216;DHT22;69532;37.974;23.708;2024-03-02T02:10:13;10.90;72.40
80216;DHT22;69532;37.974;23.708;2024-03-02T02:12:39;11.00;72.60
80216;DHT22;69532;37.974;23.708;2024-03-02T02:15:25;10.90;72.80
80216;DHT22;69532;37.974;23.708;2024-03-02T02:17:51;10.90;72.90
80216;DHT22;69532;37.974;23.708;2024-03-02T02:20:17;10.90;72.90
80216;DHT22;69532;37.974;23.708;2024-03-02T02:23:01;10.90;72.70
80216;DHT22;69532;37.974;23.708;2024-03-02T02:25:28;10.90;73.20
80216;DHT22;69532;37.974;23.708;2024-03-02T02:27:55;10.80;73.40
80216;DHT22;69532;37.974;23.708;2024-03-02T02:30:26;10.90;73.10
80216;DHT22;69532;37.974;23.708;2024-03-02T02:32:53;10.90;73.10
80216;DHT22;69532;37.974;23.708;2024-03-02T02:35:19;11.00;72.70
80216;DHT22;69532;37.974;23.708;2024-03-02T02:37:47;10.90;72.90
80216;DHT22;69532;37.974;23.708;2024-03-02T02:40:13;10.90;73.10
80216;DHT22;69532;37.974;23.708;2024-03-02T02:42:40;10.90;73.10
80216;DHT22;69532;37.974;23.708;2024-03-02T02:45:07;10.90;73.20
80216;DHT22;69532;37.974;23.708;2024-03-02T02:47:33;10.80;73.30
80216;DHT22;69532;37.974;23.708;2024-03-02T02:50:02;10.90;73.10
80216;DHT22;69532;37.974;23.708;2024-03-02T02:52:35;10.90;73.10
80216;DHT22;69532;37.974;23.708;2024-03-02T02:55:07;10.90;73.30
80216;DHT22;69532;37.974;23.708;2024-03-02T02:57:34;10.90;73.10
80216;DHT22;69532;37.974;23.708;2024-03-02T03:00:06;11.00;73.30
80216;DHT22;69532;37.974;23.708;2024-03-02T03:02:38;11.00;73.00
80216;DHT22;69532;37.974;23.708;2024-03-02T03:05:09;11.10;72.80
80216;DHT22;69532;37.974;23.708;2024-03-02T03:07:36;11.00;73.10
80216;DHT22;69532;37.974;23.708;2024-03-02T03:10:03;10.90;73.40
80216;DHT22;69532;37.974;23.708;2024-03-02T03:12:33;11.00;73.40
80216;DHT22;69532;37.974;23.708;2024-03-02T03:15:00;11.00;73.20
80216;DHT22;69532;37.974;23.708;2024-03-02T03:17:27;10.70;74.30
80216;DHT22;69532;37.974;23.708;2024-03-02T03:19:54;10.70;74.40
80216;DHT22;69532;37.974;23.708;2024-03-02T03:22:20;10.80;74.60
80216;DHT22;69532;37.974;23.708;2024-03-02T03:24:46;10.90;73.80
80216;DHT22;69532;37.974;23.708;2024-03-02T03:27:13;10.90;74.40
80216;DHT22;69532;37.974;23.708;2024-03-02T03:29:39;10.90;73.60
80216;DHT22;69532;37.974;23.708;2024-03-02T03:32:05;10.80;73.80
80216;DHT22;69532;37.974;23.708;2024-03-02T03:34:33;10.90;73.20
80216;DHT22;69532;37.974;23.708;2024-03-02T03:36:59;10.90;73.00
80216;DHT22;69532;37.974;23.708;2024-03-02T03:39:26;10.90;73.20
80216;DHT22;69532;37.974;23.708;2024-03-02T03:41:52;10.90;73.20
80216;DHT22;69532;37.974;23.708;2024-03-02T03:44:18;10.90;73.30
80216;DHT22;69532;37.974;23.708;2024-03-02T03:46:44;11.00;73.20
80216;DHT22;69532;37.974;23.708;2024-03-02T03:49:10;11.00;72.60
80216;DHT22;69532;37.974;23.708;2024-03-02T03:51:36;11.10;72.70
80216;DHT22;69532;37.974;23.708;2024-03-02T03:54:02;11.00;73.00
80216;DHT22;69532;37.974;23.708;2024-03-02T03:56:28;11.00;72.90
80216;DHT22;69532;37.974;23.708;2024-03-02T03:58:54;11.00;73.00
80216;DHT22;69532;37.974;23.708;2024-03-02T04:01:21;11.10;72.20
80216;DHT22;69532;37.974;23.708;2024-03-02T04:03:48;11.10;72.20
80216;DHT22;69532;37.974;23.708;2024-03-02T04:06:14;11.00;72.60
80216;DHT22;69532;37.974;23.708;2024-03-02T04:08:42;11.00;72.70
80216;DHT22;69532;37.974;23.708;2024-03-02T04:11:09;11.00;72.90
80216;DHT22;69532;37.974;23.708;2024-03-02T04:13:35;10.90;73.40
80216;DHT22;69532;37.974;23.708;2024-03-02T04:16:01;10.90;73.50
80216;DHT22;69532;37.974;23.708;2024-03-02T04:18:27;10.90;73.50
80216;DHT22;69532;37.974;23.708;2024-03-02T04:20:53;10.90;73.60
80216;DHT22;69532;37.974;23.708;2024-03-02T04:23:19;10.90;73.90
80216;DHT22;69532;37.974;23.708;2024-03-02T04:25:45;10.90;73.80
80216;DHT22;69532;37.974;23.708;2024-03-02T04:28:11;10.90;73.60
80216;DHT22;69532;37.974;23.708;2024-03-02T04:30:38;10.90;73.90
80216;DHT22;69532;37.974;23.708;2024-03-02T04:33:04;10.90;74.20
80216;DHT22;69532;37.974;23.708;2024-03-02T04:35:33;10.90;74.20
80216;DHT22;69532;37.974;23.708;2024-03-02T04:37:59;10.80;74.60
80216;DHT22;69532;37.974;23.708;2024-03-02T04:40:25;10.90;74.30
80216;DHT22;69532;37.974;23.708;2024-03-02T04:42:51;10.90;74.20
80216;DHT22;69532;37.974;23.708;2024-03-02T04:45:18;11.00;73.90
80216;DHT22;69532;37.974;23.708;2024-03-02T04:47:44;10.90;73.90
80216;DHT22;69532;37.974;23.708;2024-03-02T04:50:10;10.80;74.50
80216;DHT22;69532;37.974;23.708;2024-03-02T04:52:36;10.80;74.50
80216;DHT22;69532;37.974;23.708;2024-03-02T04:55:03;10.80;74.80
80216;DHT22;69532;37.974;23.708;2024-03-02T04:57:35;10.70;75.60
80216;DHT22;69532;37.974;23.708;2024-03-02T05:00:02;10.70;75.70
80216;DHT22;69532;37.974;23.708;2024-03-02T05:02:32;10.80;75.50
80216;DHT22;69532;37.974;23.708;2024-03-02T05:04:58;10.70;76.10
80216;DHT22;69532;37.974;23.708;2024-03-02T05:07:25;10.80;75.80
80216;DHT22;69532;37.974;23.708;2024-03-02T05:09:51;10.80;75.60
80216;DHT22;69532;37.974;23.708;2024-03-02T05:12:17;10.70;76.10
80216;DHT22;69532;37.974;23.708;2024-03-02T05:15:15;10.80;75.30
80216;DHT22;69532;37.974;23.708;2024-03-02T05:17:42;10.80;75.70
80216;DHT22;69532;37.974;23.708;2024-03-02T05:20:11;10.80;75.60
80216;DHT22;69532;37.974;23.708;2024-03-02T05:22:37;10.80;75.90
80216;DHT22;69532;37.974;23.708;2024-03-02T05:25:04;10.90;75.70
80216;DHT22;69532;37.974;23.708;2024-03-02T05:27:31;10.80;75.40
80216;DHT22;69532;37.974;23.708;2024-03-02T05:29:59;10.80;75.80
80216;DHT22;69532;37.974;23.708;2024-03-02T05:32:25;10.70;76.10
80216;DHT22;69532;37.974;23.708;2024-03-02T05:34:51;10.90;75.80
80216;DHT22;69532;37.974;23.708;2024-03-02T05:37:18;10.90;75.30
80216;DHT22;69532;37.974;23.708;2024-03-02T05:39:44;10.90;74.80
80216;DHT22;69532;37.974;23.708;2024-03-02T05:42:10;10.80;75.10
80216;DHT22;69532;37.974;23.708;2024-03-02T05:44:37;10.70;75.80
80216;DHT22;69532;37.974;23.708;2024-03-02T05:47:03;10.70;76.00
80216;DHT22;69532;37.974;23.708;2024-03-02T05:49:30;10.80;76.10
80216;DHT22;69532;37.974;23.708;2024-03-02T05:51:56;10.80;75.50
80216;DHT22;69532;37.974;23.708;2024-03-02T05:54:22;10.90;76.20
80216;DHT22;69532;37.974;23.708;2024-03-02T05:56:48;10.90;75.70
80216;DHT22;69532;37.974;23.708;2024-03-02T05:59:14;10.90;75.60
80216;DHT22;69532;37.974;23.708;2024-03-02T06:01:43;10.90;75.80
80216;DHT22;69532;37.974;23.708;2024-03-02T06:04:11;10.90;75.50
80216;DHT22;69532;37.974;23.708;2024-03-02T06:06:37;11.00;75.30
80216;DHT22;69532;37.974;23.708;2024-03-02T06:09:05;11.00;74.90
80216;DHT22;69532;37.974;23.708;2024-03-02T06:11:37;11.10;74.90
80216;DHT22;69532;37.974;23.708;2024-03-02T06:14:04;11.10;74.70
80216;DHT22;69532;37.974;23.708;2024-03-02T06:16:30;11.20;74.40
80216;DHT22;69532;37.974;23.708;2024-03-02T06:18:56;11.20;74.40
80216;DHT22;69532;37.974;23.708;2024-03-02T06:21:29;11.20;74.20
80216;DHT22;69532;37.974;23.708;2024-03-02T06:23:55;11.20;74.10
80216;DHT22;69532;37.974;23.708;2024-03-02T06:26:22;11.30;74.00
80216;DHT22;69532;37.974;23.708;2024-03-02T06:28:48;11.30;74.00
80216;DHT22;69532;37.974;23.708;2024-03-02T06:31:14;11.20;73.70
80216;DHT22;69532;37.974;23.708;2024-03-02T06:33:40;11.20;74.10
80216;DHT22;69532;37.974;23.708;2024-03-02T06:36:07;11.20;74.10
80216;DHT22;69532;37.974;23.708;2024-03-02T06:38:37;11.30;74.10
80216;DHT22;69532;37.974;23.708;2024-03-02T06:41:05;11.50;75.00
80216;DHT22;69532;37.974;23.708;2024-03-02T06:43:31;11.60;72.90
80216;DHT22;69532;37.974;23.708;2024-03-02T06:45:57;11.60;73.00
80216;DHT22;69532;37.974;23.708;2024-03-02T06:48:23;11.70;72.80
80216;DHT22;69532;37.974;23.708;2024-03-02T06:50:50;11.90;72.60
80216;DHT22;69532;37.974;23.708;2024-03-02T06:53:17;11.90;72.20
80216;DHT22;69532;37.974;23.708;2024-03-02T06:55:45;12.00;71.80
80216;DHT22;69532;37.974;23.708;2024-03-02T06:58:15;12.00;71.40
80216;DHT22;69532;37.974;23.708;2024-03-02T07:00:42;12.00;71.00
80216;DHT22;69532;37.974;23.708;2024-03-02T07:03:10;11.90;70.80
80216;DHT22;69532;37.974;23.708;2024-03-02T07:05:36;12.00;70.80
80216;DHT22;69532;37.974;23.708;2024-03-02T07:08:02;12.00;70.50
80216;DHT22;69532;37.974;23.708;2024-03-02T07:10:29;11.90;71.00
80216;DHT22;69532;37.974;23.708;2024-03-02T07:12:55;11.90;71.40
80216;DHT22;69532;37.974;23.708;2024-03-02T07:15:21;11.90;71.60
80216;DHT22;69532;37.974;23.708;2024-03-02T07:18:03;12.00;71.60
80216;DHT22;69532;37.974;23.708;2024-03-02T07:20:30;12.10;71.40
80216;DHT22;69532;37.974;23.708;2024-03-02T07:22:56;12.30;71.00
80216;DHT22;69532;37.974;23.708;2024-03-02T07:25:23;12.50;70.60
80216;DHT22;69532;37.974;23.708;2024-03-02T07:27:49;12.50;70.10
80216;DHT22;69532;37.974;23.708;2024-03-02T07:30:15;12.60;69.90
80216;DHT22;69532;37.974;23.708;2024-03-02T07:32:44;12.60;69.40
80216;DHT22;69532;37.974;23.708;2024-03-02T07:35:15;12.60;68.70
80216;DHT22;69532;37.974;23.708;2024-03-02T07:37:42;12.60;69.00
80216;DHT22;69532;37.974;23.708;2024-03-02T07:40:09;12.60;69.00
80216;DHT22;69532;37.974;23.708;2024-03-02T07:42:38;12.70;68.50
80216;DHT22;69532;37.974;23.708;2024-03-02T07:45:05;12.80;68.50
80216;DHT22;69532;37.974;23.708;2024-03-02T07:47:35;12.70;68.90
80216;DHT22;69532;37.974;23.708;2024-03-02T07:50:02;12.80;68.80
80216;DHT22;69532;37.974;23.708;2024-03-02T07:52:28;12.80;68.20
80216;DHT22;69532;37.974;23.708;2024-03-02T07:54:54;12.80;68.20
80216;DHT22;69532;37.974;23.708;2024-03-02T07:57:21;12.90;68.40
80216;DHT22;69532;37.974;23.708;2024-03-02T07:59:47;13.00;67.80
80216;DHT22;69532;37.974;23.708;2024-03-02T08:02:13;13.10;67.30
80216;DHT22;69532;37.974;23.708;2024-03-02T08:04:40;13.20;67.20
80216;DHT22;69532;37.974;23.708;2024-03-02T08:07:07;13.20;66.50
80216;DHT22;69532;37.974;23.708;2024-03-02T08:09:33;13.10;66.40
80216;DHT22;69532;37.974;23.708;2024-03-02T08:11:59;13.00;66.60
80216;DHT22;69532;37.974;23.708;2024-03-02T08:14:25;13.00;66.50
80216;DHT22;69532;37.974;23.708;2024-03-02T08:16:52;13.00;66.90
80216;DHT22;69532;37.974;23.708;2024-03-02T08:19:18;13.00;67.50
80216;DHT22;69532;37.974;23.708;2024-03-02T08:21:44;12.90;67.10
80216;DHT22;69532;37.974;23.708;2024-03-02T08:24:10;12.90;67.50
80216;DHT22;69532;37.974;23.708;2024-03-02T08:26:36;13.00;67.70
80216;DHT22;69532;37.974;23.708;2024-03-02T08:29:02;13.00;67.70
80216;DHT22;69532;37.974;23.708;2024-03-02T08:31:30;13.10;67.70
80216;DHT22;69532;37.974;23.708;2024-03-02T08:33:56;13.30;67.00
80216;DHT22;69532;37.974;23.708;2024-03-02T08:36:25;13.40;66.40
80216;DHT22;69532;37.974;23.708;2024-03-02T08:38:51;13.50;66.50
80216;DHT22;69532;37.974;23.708;2024-03-02T08:41:17;13.60;66.50
80216;DHT22;69532;37.974;23.708;2024-03-02T08:43:44;13.50;65.90
80216;DHT22;69532;37.974;23.708;2024-03-02T08:46:10;13.30;66.30
80216;DHT22;69532;37.974;23.708;2024-03-02T08:48:36;13.20;67.10
80216;DHT22;69532;37.974;23.708;2024-03-02T08:51:02;13.00;67.50
80216;DHT22;69532;37.974;23.708;2024-03-02T08:53:31;13.10;67.80
80216;DHT22;69532;37.974;23.708;2024-03-02T08:55:58;13.10;67.40
80216;DHT22;69532;37.974;23.708;2024-03-02T08:58:24;13.10;67.80
80216;DHT22;69532;37.974;23.708;2024-03-02T09:00:50;13.00;67.30
80216;DHT22;69532;37.974;23.708;2024-03-02T09:03:16;13.00;67.30
80216;DHT22;69532;37.974;23.708;2024-03-02T09:05:42;13.10;66.80
80216;DHT22;69532;37.974;23.708;2024-03-02T09:08:08;13.20;66.50
80216;DHT22;69532;37.974;23.708;2024-03-02T09:10:34;13.20;66.10
80216;DHT22;69532;37.974;23.708;2024-03-02T09:13:01;13.20;67.60
80216;DHT22;69532;37.974;23.708;2024-03-02T09:15:27;13.40;65.90
80216;DHT22;69532;37.974;23.708;2024-03-02T09:17:53;13.60;65.30
80216;DHT22;69532;37.974;23.708;2024-03-02T09:20:20;13.70;64.90
80216;DHT22;69532;37.974;23.708;2024-03-02T09:22:46;13.80;64.40
80216;DHT22;69532;37.974;23.708;2024-03-02T09:25:13;13.70;64.80
80216;DHT22;69532;37.974;23.708;2024-03-02T09:27:39;13.70;64.60
80216;DHT22;69532;37.974;23.708;2024-03-02T09:30:08;13.70;64.80
80216;DHT22;69532;37.974;23.708;2024-03-02T09:32:35;13.70;65.10
80216;DHT22;69532;37.974;23.708;2024-03-02T09:35:01;13.70;64.50
80216;DHT22;69532;37.974;23.708;2024-03-02T09:37:27;13.80;64.60
80216;DHT22;69532;37.974;23.708;2024-03-02T09:39:54;13.90;65.60
80216;DHT22;69532;37.974;23.708;2024-03-02T09:42:21;14.00;64.30
80216;DHT22;69532;37.974;23.708;2024-03-02T09:44:48;14.10;64.10
80216;DHT22;69532;37.974;23.708;2024-03-02T09:47:14;14.40;62.60
80216;DHT22;69532;37.974;23.708;2024-03-02T09:49:40;14.50;62.80
80216;DHT22;69532;37.974;23.708;2024-03-02T09:52:07;14.50;61.50
80216;DHT22;69532;37.974;23.708;2024-03-02T09:54:33;14.60;61.10
80216;DHT22;69532;37.974;23.708;2024-03-02T09:56:59;14.60;61.70
80216;DHT22;69532;37.974;23.708;2024-03-02T09:59:28;14.60;61.50
80216;DHT22;69532;37.974;23.708;2024-03-02T10:02:04;14.70;61.00
80216;DHT22;69532;37.974;23.708;2024-03-02T10:04:33;14.90;60.70
80216;DHT22;69532;37.974;23.708;2024-03-02T10:07:18;15.00;60.50
80216;DHT22;69532;37.974;23.708;2024-03-02T10:09:46;15.20;59.60
80216;DHT22;69532;37.974;23.708;2024-03-02T10:12:15;15.20;59.70
80216;DHT22;69532;37.974;23.708;2024-03-02T10:14:41;15.30;59.00
80216;DHT22;69532;37.974;23.708;2024-03-02T10:17:12;15.50;59.10
80216;DHT22;69532;37.974;23.708;2024-03-02T10:19:39;15.60;59.20
80216;DHT22;69532;37.974;23.708;2024-03-02T10:22:07;15.90;58.60
80216;DHT22;69532;37.974;23.708;2024-03-02T10:24:38;16.00;57.80
80216;DHT22;69532;37.974;23.708;2024-03-02T10:27:14;16.10;55.30
80216;DHT22;69532;37.974;23.708;2024-03-02T10:29:41;16.30;55.20
80216;DHT22;69532;37.974;23.708;2024-03-02T10:32:11;16.30;55.80
80216;DHT22;69532;37.974;23.708;2024-03-02T10:34:41;16.50;55.80
80216;DHT22;69532;37.974;23.708;2024-03-02T10:37:08;16.60;56.40
80216;DHT22;69532;37.974;23.708;2024-03-02T10:39:35;16.90;54.00
80216;DHT22;69532;37.974;23.708;2024-03-02T10:42:07;17.10;52.80
80216;DHT22;69532;37.974;23.708;2024-03-02T10:44:33;17.30;52.70
80216;DHT22;69532;37.974;23.708;2024-03-02T10:47:04;17.50;52.00
80216;DHT22;69532;37.974;23.708;2024-03-02T10:49:32;17.50;51.80
80216;DHT22;69532;37.974;23.708;2024-03-02T10:52:01;17.70;51.50
80216;DHT22;69532;37.974;23.708;2024-03-02T10:54:27;17.90;51.20
80216;DHT22;69532;37.974;23.708;2024-03-02T10:56:58;17.90;50.70
80216;DHT22;69532;37.974;23.708;2024-03-02T10:59:36;18.00;49.50
80216;DHT22;69532;37.974;23.708;2024-03-02T11:02:06;17.80;50.10
80216;DHT22;69532;37.974;23.708;2024-03-02T11:04:37;17.60;50.60
80216;DHT22;69532;37.974;23.708;2024-03-02T11:07:09;17.50;50.80
80216;DHT22;69532;37.974;23.708;2024-03-02T11:09:45;17.40;51.80
80216;DHT22;69532;37.974;23.708;2024-03-02T11:14:55;17.00;51.50
80216;DHT22;69532;37.974;23.708;2024-03-02T11:17:22;16.80;52.10
80216;DHT22;69532;37.974;23.708;2024-03-02T11:19:49;16.80;52.60
80216;DHT22;69532;37.974;23.708;2024-03-02T11:22:16;16.80;52.00
80216;DHT22;69532;37.974;23.708;2024-03-02T11:24:49;16.80;52.10
80216;DHT22;69532;37.974;23.708;2024-03-02T11:32:59;16.60;52.80
80216;DHT22;69532;37.974;23.708;2024-03-02T11:35:26;16.60;52.90
80216;DHT22;69532;37.974;23.708;2024-03-02T11:37:52;16.50;53.30
80216;DHT22;69532;37.974;23.708;2024-03-02T11:40:31;16.30;53.80
80216;DHT22;69532;37.974;23.708;2024-03-02T11:42:59;16.30;53.70
80216;DHT22;69532;37.974;23.708;2024-03-02T11:45:27;16.10;53.70
80216;DHT22;69532;37.974;23.708;2024-03-02T11:47:55;15.80;54.90
80216;DHT22;69532;37.974;23.708;2024-03-02T11:50:33;15.30;56.80
80216;DHT22;69532;37.974;23.708;2024-03-02T11:53:00;15.50;57.70
80216;DHT22;69532;37.974;23.708;2024-03-02T11:55:26;15.10;58.90
80216;DHT22;69532;37.974;23.708;2024-03-02T11:57:53;14.30;60.80
80216;DHT22;69532;37.974;23.708;2024-03-02T12:00:20;14.30;62.30
80216;DHT22;69532;37.974;23.708;2024-03-02T12:02:47;14.00;63.00
80216;DHT22;69532;37.974;23.708;2024-03-02T12:05:26;12.70;66.80
80216;DHT22;69532;37.974;23.708;2024-03-02T12:08:04;12.30;70.70
80216;DHT22;69532;37.974;23.708;2024-03-02T12:10:31;12.60;69.50
80216;DHT22;69532;37.974;23.708;2024-03-02T12:13:05;13.20;67.70
80216;DHT22;69532;37.974;23.708;2024-03-02T12:15:37;14.00;64.50
80216;DHT22;69532;37.974;23.708;2024-03-02T12:18:04;13.60;63.60
80216;DHT22;69532;37.974;23.708;2024-03-02T12:20:32;12.60;68.20
80216;DHT22;69532;37.974;23.708;2024-03-02T12:23:00;12.50;70.30
80216;DHT22;69532;37.974;23.708;2024-03-02T12:25:26;12.70;70.20
80216;DHT22;69532;37.974;23.708;2024-03-02T12:27:57;12.70;68.40
80216;DHT22;69532;37.974;23.708;2024-03-02T12:30:24;12.60;69.20
80216;DHT22;69532;37.974;23.708;2024-03-02T12:32:52;12.70;68.50
80216;DHT22;69532;37.974;23.708;2024-03-02T12:35:18;13.10;67.50
80216;DHT22;69532;37.974;23.708;2024-03-02T12:37:49;13.10;67.60
80216;DHT22;69532;37.974;23.708;2024-03-02T12:40:18;13.20;66.60
80216;DHT22;69532;37.974;23.708;2024-03-02T12:42:45;13.20;66.90
80216;DHT22;69532;37.974;23.708;2024-03-02T12:45:13;12.40;68.00
80216;DHT22;69532;37.974;23.708;2024-03-02T12:47:40;12.30;68.70
80216;DHT22;69532;37.974;23.708;2024-03-02T12:50:08;12.70;67.50
80216;DHT22;69532;37.974;23.708;2024-03-02T12:52:34;12.60;68.10
80216;DHT22;69532;37.974;23.708;2024-03-02T12:55:01;12.70;68.40
80216;DHT22;69532;37.974;23.708;2024-03-02T12:57:30;12.80;67.60
80216;DHT22;69532;37.974;23.708;2024-03-02T13:00:01;12.50;67.80
80216;DHT22;69532;37.974;23.708;2024-03-02T13:02:35;12.40;69.10
80216;DHT22;69532;37.974;23.708;2024-03-02T13:05:03;12.30;69.80
80216;DHT22;69532;37.974;23.708;2024-03-02T13:07:29;12.70;69.30
80216;DHT22;69532;37.974;23.708;2024-03-02T13:09:56;12.20;68.90
80216;DHT22;69532;37.974;23.708;2024-03-02T13:12:24;12.20;69.20
80216;DHT22;69532;37.974;23.708;2024-03-02T13:14:52;11.80;70.90
80216;DHT22;69532;37.974;23.708;2024-03-02T13:17:19;11.90;71.20
80216;DHT22;69532;37.974;23.708;2024-03-02T13:19:56;12.30;69.70
80216;DHT22;69532;37.974;23.708;2024-03-02T13:22:23;12.10;69.90
80216;DHT22;69532;37.974;23.708;2024-03-02T13:24:50;11.90;71.10
80216;DHT22;69532;37.974;23.708;2024-03-02T13:27:17;11.90;72.20
80216;DHT22;69532;37.974;23.708;2024-03-02T13:29:46;12.10;71.10
80216;DHT22;69532;37.974;23.708;2024-03-02T13:32:14;12.10;71.60
80216;DHT22;69532;37.974;23.708;2024-03-02T13:34:40;12.10;71.10
80216;DHT22;69532;37.974;23.708;2024-03-02T13:37:07;11.90;71.90
80216;DHT22;69532;37.974;23.708;2024-03-02T13:39:33;11.90;71.00
80216;DHT22;69532;37.974;23.708;2024-03-02T13:42:07;11.90;70.80
80216;DHT22;69532;37.974;23.708;2024-03-02T13:44:34;12.00;71.30
80216;DHT22;69532;37.974;23.708;2024-03-02T13:47:00;11.70;72.70
80216;DHT22;69532;37.974;23.708;2024-03-02T13:49:26;11.80;72.00
80216;DHT22;69532;37.974;23.708;2024-03-02T13:52:00;11.60;73.60
80216;DHT22;69532;37.974;23.708;2024-03-02T13:54:29;11.80;73.00
80216;DHT22;69532;37.974;23.708;2024-03-02T13:56:56;11.70;73.20
80216;DHT22;69532;37.974;23.708;2024-03-02T13:59:25;11.70;71.60
80216;DHT22;69532;37.974;23.708;2024-03-02T14:01:52;11.60;73.70
80216;DHT22;69532;37.974;23.708;2024-03-02T14:04:18;11.70;73.40
80216;DHT22;69532;37.974;23.708;2024-03-02T14:06:44;12.00;72.50
80216;DHT22;69532;37.974;23.708;2024-03-02T14:09:10;11.70;72.90
80216;DHT22;69532;37.974;23.708;2024-03-02T14:11:36;11.60;73.20
80216;DHT22;69532;37.974;23.708;2024-03-02T14:14:02;11.20;75.20
80216;DHT22;69532;37.974;23.708;2024-03-02T14:16:28;11.00;76.90
80216;DHT22;69532;37.974;23.708;2024-03-02T14:18:55;10.90;77.70
80216;DHT22;69532;37.974;23.708;2024-03-02T14:21:21;10.90;77.80
80216;DHT22;69532;37.974;23.708;2024-03-02T14:23:47;10.90;77.90
80216;DHT22;69532;37.974;23.708;2024-03-02T14:26:13;10.90;78.40
80216;DHT22;69532;37.974;23.708;2024-03-02T14:28:39;10.70;78.40
80216;DHT22;69532;37.974;23.708;2024-03-02T14:31:05;10.60;79.20
80216;DHT22;69532;37.974;23.708;2024-03-02T14:33:32;10.60;79.20
80216;DHT22;69532;37.974;23.708;2024-03-02T14:35:58;10.70;79.20
80216;DHT22;69532;37.974;23.708;2024-03-02T14:38:24;10.70;79.40
80216;DHT22;69532;37.974;23.708;2024-03-02T14:40:50;10.70;79.50
80216;DHT22;69532;37.974;23.708;2024-03-02T14:43:16;10.90;79.10
80216;DHT22;69532;37.974;23.708;2024-03-02T14:45:43;11.00;78.60
80216;DHT22;69532;37.974;23.708;2024-03-02T14:48:09;11.00;78.40
80216;DHT22;69532;37.974;23.708;2024-03-02T14:50:35;10.80;78.00
80216;DHT22;69532;37.974;23.708;2024-03-02T14:53:01;10.90;78.70
80216;DHT22;69532;37.974;23.708;2024-03-02T14:55:28;11.20;76.80
80216;DHT22;69532;37.974;23.708;2024-03-02T14:57:54;11.30;76.20
80216;DHT22;69532;37.974;23.708;2024-03-02T15:00:20;11.10;76.80
80216;DHT22;69532;37.974;23.708;2024-03-02T15:02:46;10.90;76.30
80216;DHT22;69532;37.974;23.708;2024-03-02T15:05:13;10.70;78.00
80216;DHT22;69532;37.974;23.708;2024-03-02T15:07:39;10.70;77.90
80216;DHT22;69532;37.974;23.708;2024-03-02T15:10:05;10.50;78.60
80216;DHT22;69532;37.974;23.708;2024-03-02T15:12:32;10.60;78.90
80216;DHT22;69532;37.974;23.708;2024-03-02T15:14:58;10.80;78.70
80216;DHT22;69532;37.974;23.708;2024-03-02T15:17:25;10.90;76.70
80216;DHT22;69532;37.974;23.708;2024-03-02T15:19:52;10.90;78.10
80216;DHT22;69532;37.974;23.708;2024-03-02T15:22:18;10.80;78.50
80216;DHT22;69532;37.974;23.708;2024-03-02T15:24:44;10.60;78.90
80216;DHT22;69532;37.974;23.708;2024-03-02T15:27:10;10.50;79.10
80216;DHT22;69532;37.974;23.708;2024-03-02T15:29:36;10.50;80.80
80216;DHT22;69532;37.974;23.708;2024-03-02T15:32:03;10.40;80.40
80216;DHT22;69532;37.974;23.708;2024-03-02T15:34:33;10.40;82.30